VARK

Details ICAO VARK (RAJ)
Name RAJKOT
Region India
Timezone Asia/Kolkata (UTC+5.5)
Plans Departing 4
Arriving 7
Stats Elevation 441 ft / 134 m (AMSL)
Location 22.309182° 70.779525°
Runways 1
Magnetic Variation 0.432° E
Sunrise 2017-12-17 01:51:07 UTC / 2017-12-17 07:21:07 Local
Sunset 2017-12-17 12:37:26 UTC / 2017-12-17 18:07:26 Local
Advertisement - Login to hide

Runways

ID Width Length Bearing (true) Bearing (mag) Surface Threshold Offset Overrun Length
05 148 ft / 45 m 6,032 ft / 1,839 m 46.84° 46.41° Asphalt 312 ft / 95 m 0 ft / 0 m
23 148 ft / 45 m 6,032 ft / 1,839 m 226.84° 226.41° Asphalt 300 ft / 91 m 0 ft / 0 m

Approach Navaids

Runway Type Ident Frequency Range Bearing (true) Bearing (mag) Slope Elevation
23 Localiser IRAJ 110.90 MHz 18 nm / 33 km 227.42° 226.99° - 441 ft / 134 m (AMSL)
23 Glidescope IRAJ 110.90 MHz 10 nm / 19 km 226.84° 226.41° 3.00° 441 ft / 134 m (AMSL)
23 DME IRAJ 110.90 MHz 18 nm / 33 km - - - 441 ft / 134 m (AMSL)

Map

Weather


0- 5 10 15 20 25 30 35+ Temperature / ° C

Clouds and Precipitation
Forecast for 2017-12-17 12:00 UTC. Updated an hour ago

Ground ~20,000 ft ~40,000 ft Winds

METAR

VARK 171200Z 07006KT 6000 NSC 28/13 Q1016

TAF

Not found

Frequencies

Tower 122.10 MHz TWR
Approach 122.30 MHz APP
Warning: Do not use this data for real-world aviation or navigation. No guarantee of current accuracy is given.